Time;durP1;ratioP1;P1;durP2;ratioP2;P2;SDS_P1;SDS_P2;PMS_P1;PMS_P2;Temp;Humidity;BMP_temperature;BMP_pressure;BME280_temperature;BME280_humidity;BME280_pressure;Samples;Min_cycle;Max_cycle;Signal;HPM_P1;HPM_P2
2024/01/02 00:01:37;;;;;;;1.30;0.17;;;6.40;99.90;;;;;;5010691;28;20038;-72
2024/01/02 00:04:03;;;;;;;1.75;0.50;;;6.40;99.90;;;;;;5018983;28;20065;-72
2024/01/02 00:06:29;;;;;;;1.92;0.20;;;6.50;99.90;;;;;;5016178;28;20403;-72
2024/01/02 00:08:55;;;;;;;2.40;0.60;;;6.50;99.90;;;;;;5018609;28;20030;-72
2024/01/02 00:11:21;;;;;;;0.95;0.45;;;6.50;99.90;;;;;;5004591;28;20049;-71
2024/01/02 00:13:47;;;;;;;1.50;0.40;;;6.50;99.90;;;;;;5023550;28;20128;-72
2024/01/02 00:16:13;;;;;;;1.58;0.30;;;6.50;99.90;;;;;;5009228;28;20037;-71
2024/01/02 00:18:39;;;;;;;1.00;0.20;;;6.60;99.90;;;;;;5016826;28;20043;-71
2024/01/02 00:21:04;;;;;;;0.95;0.30;;;6.50;99.90;;;;;;5017849;28;20080;-70
2024/01/02 00:23:30;;;;;;;0.00;0.00;;;6.60;99.90;;;;;;5029927;28;20050;-70
2024/01/02 00:25:56;;;;;;;0.10;0.10;;;6.60;99.90;;;;;;5015302;28;20414;-70
2024/01/02 00:28:22;;;;;;;1.20;0.30;;;6.60;99.90;;;;;;5005008;28;20123;-70
2024/01/02 00:30:48;;;;;;;0.10;0.10;;;6.60;99.90;;;;;;5018980;28;20372;-71
2024/01/02 00:33:13;;;;;;;1.58;0.30;;;6.60;99.90;;;;;;5022846;28;20041;-71
2024/01/02 00:35:41;;;;;;;0.55;0.20;;;6.60;99.90;;;;;;5023034;28;20041;-71
2024/01/02 00:38:09;;;;;;;0.10;0.03;;;6.70;99.90;;;;;;5020937;28;20042;-71
2024/01/02 00:40:35;;;;;;;4.47;0.28;;;6.70;99.90;;;;;;5019351;28;20041;-71
2024/01/02 00:43:01;;;;;;;1.85;0.28;;;6.70;99.90;;;;;;5021301;28;20046;-70
2024/01/02 00:45:27;;;;;;;0.22;0.10;;;6.70;99.90;;;;;;5035760;28;20046;-71
2024/01/02 00:47:53;;;;;;;0.93;0.38;;;6.70;99.90;;;;;;5019813;28;20127;-70
2024/01/02 00:50:21;;;;;;;0.28;0.10;;;6.70;99.90;;;;;;5015492;28;20137;-72
2024/01/02 00:52:47;;;;;;;1.98;0.40;;;6.80;99.90;;;;;;5030326;28;20137;-71
2024/01/02 00:55:12;;;;;;;8.55;1.08;;;6.70;99.90;;;;;;5035769;28;20529;-71
2024/01/02 00:57:38;;;;;;;0.20;0.05;;;6.70;99.90;;;;;;5018468;28;20121;-71
2024/01/02 01:00:05;;;;;;;0.85;0.17;;;6.80;99.90;;;;;;5018170;28;20068;-71
2024/01/02 01:02:31;;;;;;;2.17;0.93;;;6.80;99.90;;;;;;5021402;28;20045;-71
2024/01/02 01:04:57;;;;;;;0.85;0.25;;;6.80;99.90;;;;;;5018447;28;20099;-71
2024/01/02 01:07:23;;;;;;;3.63;0.50;;;6.80;99.90;;;;;;5036214;28;20041;-71
2024/01/02 01:09:49;;;;;;;0.38;0.17;;;6.80;99.90;;;;;;5017185;28;20554;-71
2024/01/02 01:12:14;;;;;;;0.85;0.35;;;6.80;99.90;;;;;;5019690;28;20072;-71
2024/01/02 01:14:40;;;;;;;0.65;0.65;;;6.80;99.90;;;;;;5033129;28;20041;-70
2024/01/02 01:17:06;;;;;;;0.55;0.32;;;6.80;99.90;;;;;;5019900;28;20034;-71
2024/01/02 01:19:33;;;;;;;0.65;0.08;;;6.80;99.90;;;;;;5016568;28;20108;-71
2024/01/02 01:21:59;;;;;;;1.65;0.25;;;6.80;99.90;;;;;;5018019;28;20042;-71
2024/01/02 01:24:25;;;;;;;1.63;0.30;;;6.80;99.90;;;;;;5016584;28;20040;-72
2024/01/02 01:26:52;;;;;;;2.33;0.32;;;6.80;99.90;;;;;;5020726;28;20494;-71
2024/01/02 01:29:23;;;;;;;4.00;0.85;;;6.80;99.90;;;;;;5024605;28;20064;-72
2024/01/02 01:31:49;;;;;;;1.88;0.25;;;6.80;99.90;;;;;;5022721;28;20055;-72
2024/01/02 01:34:18;;;;;;;10.75;1.08;;;6.80;99.90;;;;;;5017869;28;20037;-72
2024/01/02 01:36:44;;;;;;;3.63;0.20;;;6.90;99.90;;;;;;5019128;28;20049;-70
2024/01/02 01:39:10;;;;;;;0.68;0.28;;;6.90;99.90;;;;;;5017409;28;20399;-72
2024/01/02 01:41:35;;;;;;;0.00;0.00;;;6.90;99.90;;;;;;5032831;28;20410;-72
2024/01/02 01:44:01;;;;;;;0.57;0.30;;;6.90;99.90;;;;;;5018696;28;20045;-72
2024/01/02 01:46:36;;;;;;;1.08;0.40;;;6.90;99.90;;;;;;5016081;28;20077;-73
2024/01/02 01:49:03;;;;;;;8.88;1.35;;;6.90;99.90;;;;;;5034332;28;20525;-73
2024/01/02 01:51:30;;;;;;;0.45;0.20;;;7.00;99.90;;;;;;4995332;28;20054;-72
2024/01/02 01:54:00;;;;;;;0.55;0.20;;;6.90;99.90;;;;;;5018562;28;20049;-72
2024/01/02 01:56:25;;;;;;;0.68;0.20;;;7.00;99.90;;;;;;5020004;28;20502;-72
2024/01/02 01:58:51;;;;;;;0.32;0.30;;;6.90;99.90;;;;;;5018532;28;20037;-72
2024/01/02 02:01:17;;;;;;;0.77;0.38;;;7.00;99.90;;;;;;5016544;28;20087;-72
2024/01/02 02:03:43;;;;;;;0.40;0.17;;;7.00;99.90;;;;;;5036522;28;20030;-73
2024/01/02 02:06:09;;;;;;;1.73;0.75;;;7.00;99.90;;;;;;5015138;28;20341;-72
2024/01/02 02:08:36;;;;;;;1.05;0.45;;;7.00;99.90;;;;;;5012858;28;20087;-72
2024/01/02 02:11:03;;;;;;;2.65;0.45;;;7.00;99.90;;;;;;5035182;28;20046;-72
2024/01/02 02:13:29;;;;;;;0.35;0.30;;;7.10;99.90;;;;;;5017091;28;20534;-73
2024/01/02 02:15:54;;;;;;;1.27;0.60;;;7.00;99.90;;;;;;5017121;28;20061;-73
2024/01/02 02:18:20;;;;;;;0.52;0.28;;;7.00;99.90;;;;;;5022164;28;20372;-74
2024/01/02 02:20:46;;;;;;;3.63;1.25;;;7.10;99.90;;;;;;5018654;28;20041;-74
2024/01/02 02:23:11;;;;;;;1.65;0.88;;;7.00;99.90;;;;;;5019484;28;20045;-73
2024/01/02 02:25:37;;;;;;;0.15;0.15;;;7.10;99.90;;;;;;5014915;28;20049;-74
2024/01/02 02:28:03;;;;;;;0.95;0.68;;;7.10;99.90;;;;;;5029709;28;20052;-73
2024/01/02 02:30:29;;;;;;;2.63;1.00;;;7.10;99.90;;;;;;5015912;28;20045;-73
2024/01/02 02:32:55;;;;;;;3.92;0.65;;;7.10;99.90;;;;;;5019025;28;20042;-74
2024/01/02 02:35:21;;;;;;;0.68;0.43;;;7.10;99.90;;;;;;5017690;28;20367;-74
2024/01/02 02:37:46;;;;;;;0.65;0.30;;;7.20;99.90;;;;;;5019492;28;20084;-74
2024/01/02 02:40:12;;;;;;;0.57;0.45;;;7.10;99.90;;;;;;5035779;28;20048;-74
2024/01/02 02:42:38;;;;;;;1.85;0.55;;;7.10;99.90;;;;;;5014860;28;20045;-75
2024/01/02 02:45:05;;;;;;;1.95;0.50;;;7.20;99.90;;;;;;5037679;28;20041;-76
2024/01/02 02:47:31;;;;;;;0.22;0.15;;;7.10;99.90;;;;;;5027350;28;20057;-75
2024/01/02 02:49:56;;;;;;;1.10;0.75;;;7.10;99.90;;;;;;5025437;28;20041;-76
2024/01/02 02:52:23;;;;;;;0.75;0.70;;;7.10;99.90;;;;;;5044467;28;20064;-76
2024/01/02 02:54:49;;;;;;;0.45;0.30;;;7.10;99.90;;;;;;5026197;28;20042;-77
2024/01/02 02:57:15;;;;;;;0.38;0.30;;;7.20;99.90;;;;;;5025227;28;20048;-76
2024/01/02 02:59:41;;;;;;;0.35;0.22;;;7.10;99.90;;;;;;5011785;28;20037;-72
2024/01/02 03:02:07;;;;;;;1.65;0.30;;;7.10;99.90;;;;;;5024606;28;20053;-76
2024/01/02 03:04:32;;;;;;;0.60;0.32;;;7.10;99.90;;;;;;5026268;28;20034;-75
2024/01/02 03:06:58;;;;;;;0.40;0.30;;;7.10;99.90;;;;;;5022655;28;20034;-74
2024/01/02 03:09:24;;;;;;;0.55;0.35;;;7.20;99.90;;;;;;5009885;28;20034;-76
2024/01/02 03:11:50;;;;;;;0.70;0.43;;;7.10;99.90;;;;;;5017003;28;20096;-75
2024/01/02 03:14:16;;;;;;;1.20;0.70;;;7.10;99.90;;;;;;5045383;28;20042;-76
2024/01/02 03:16:42;;;;;;;2.55;0.60;;;7.20;99.90;;;;;;5021708;28;20034;-76
2024/01/02 03:19:07;;;;;;;1.10;0.35;;;7.10;99.90;;;;;;5040218;28;20065;-75
2024/01/02 03:21:33;;;;;;;5.30;0.82;;;7.20;99.90;;;;;;5018777;28;20568;-75
2024/01/02 03:23:59;;;;;;;0.20;0.10;;;7.20;99.90;;;;;;5023550;28;20076;-77
2024/01/02 03:26:25;;;;;;;0.17;0.17;;;7.20;99.90;;;;;;5025835;28;20041;-76
2024/01/02 03:28:51;;;;;;;1.55;0.25;;;7.20;99.90;;;;;;5019232;28;20041;-76
2024/01/02 03:31:17;;;;;;;3.83;0.20;;;7.20;99.90;;;;;;5013868;28;20322;-76
2024/01/02 03:33:43;;;;;;;0.10;0.10;;;7.20;99.90;;;;;;5014975;28;20046;-75
2024/01/02 03:36:17;;;;;;;0.00;0.00;;;7.20;99.90;;;;;;5025306;28;20038;-76
2024/01/02 03:38:43;;;;;;;1.17;0.20;;;7.20;99.90;;;;;;5028407;28;20037;-76
2024/01/02 03:41:08;;;;;;;3.72;0.40;;;7.20;99.90;;;;;;5024349;28;20041;-75
2024/01/02 03:43:34;;;;;;;0.25;0.00;;;7.20;99.90;;;;;;5020783;28;20080;-75
2024/01/02 03:46:00;;;;;;;0.50;0.30;;;7.20;99.90;;;;;;5039351;28;20026;-78
2024/01/02 03:48:25;;;;;;;0.13;0.13;;;7.20;99.90;;;;;;5027649;28;20343;-77
2024/01/02 03:50:51;;;;;;;0.45;0.30;;;7.20;99.90;;;;;;5032242;28;20117;-78
2024/01/02 03:53:17;;;;;;;3.30;0.30;;;7.20;99.90;;;;;;5038223;28;20034;-77
2024/01/02 03:55:43;;;;;;;0.38;0.30;;;7.20;99.90;;;;;;5070936;22;20049;-77
2024/01/02 03:58:08;;;;;;;0.10;0.10;;;7.20;99.90;;;;;;5039556;28;20077;-76
2024/01/02 04:00:35;;;;;;;5.10;0.75;;;7.20;99.90;;;;;;5017186;28;20045;-76
2024/01/02 04:03:01;;;;;;;0.13;0.13;;;7.20;99.90;;;;;;5023862;28;20069;-76
2024/01/02 04:05:29;;;;;;;1.15;0.35;;;7.20;99.90;;;;;;5027921;28;20053;-76
2024/01/02 04:07:54;;;;;;;0.68;0.10;;;7.10;99.90;;;;;;5040480;28;20541;-76
2024/01/02 04:10:20;;;;;;;1.08;0.57;;;7.20;99.90;;;;;;5034089;28;20100;-76
2024/01/02 04:12:46;;;;;;;2.88;0.43;;;7.20;99.90;;;;;;5021313;28;20049;-76
2024/01/02 04:15:12;;;;;;;2.72;0.43;;;7.20;99.90;;;;;;5035043;28;20048;-76
2024/01/02 04:17:37;;;;;;;2.17;0.60;;;7.10;99.90;;;;;;5030693;28;20045;-77
2024/01/02 04:20:03;;;;;;;0.52;0.35;;;7.20;99.90;;;;;;5014885;28;20053;-77
2024/01/02 04:22:29;;;;;;;0.13;0.13;;;7.10;99.90;;;;;;5024493;28;20038;-77
2024/01/02 04:24:55;;;;;;;0.10;0.00;;;7.10;99.90;;;;;;5025324;28;20196;-77
2024/01/02 04:27:20;;;;;;;0.20;0.15;;;7.20;99.90;;;;;;5015484;28;20049;-76
2024/01/02 04:29:46;;;;;;;1.27;0.20;;;7.10;99.90;;;;;;5030527;28;20048;-76
2024/01/02 04:32:13;;;;;;;0.17;0.17;;;7.10;99.90;;;;;;5027055;28;20135;-76
2024/01/02 04:34:39;;;;;;;0.00;0.00;;;7.10;99.90;;;;;;5023850;28;20354;-76
2024/01/02 04:37:05;;;;;;;3.20;0.32;;;7.10;99.90;;;;;;5015496;28;20033;-76
2024/01/02 04:39:31;;;;;;;0.10;0.10;;;7.20;99.90;;;;;;5022662;28;20029;-76
2024/01/02 04:41:56;;;;;;;0.00;0.00;;;7.10;99.90;;;;;;5030471;28;20073;-76
2024/01/02 04:44:22;;;;;;;0.38;0.17;;;7.20;99.90;;;;;;5029402;28;20101;-76
2024/01/02 04:46:48;;;;;;;0.57;0.30;;;7.10;99.90;;;;;;5010770;28;20038;-76
2024/01/02 04:49:14;;;;;;;4.28;0.30;;;7.10;99.90;;;;;;5032859;28;20033;-76
2024/01/02 04:51:40;;;;;;;2.47;0.20;;;7.10;99.90;;;;;;5010776;28;20030;-76
2024/01/02 04:54:07;;;;;;;0.20;0.10;;;7.20;99.90;;;;;;5023602;28;20048;-76
2024/01/02 04:56:33;;;;;;;3.17;0.10;;;7.20;99.90;;;;;;5040427;28;20097;-76
2024/01/02 04:58:59;;;;;;;2.30;0.98;;;7.10;99.90;;;;;;5031357;28;20673;-76
2024/01/02 05:01:25;;;;;;;0.20;0.05;;;7.20;99.90;;;;;;5037512;28;20065;-76
2024/01/02 05:03:50;;;;;;;0.20;0.08;;;7.20;99.90;;;;;;5035183;28;20065;-76
2024/01/02 05:06:16;;;;;;;0.32;0.20;;;7.20;99.90;;;;;;5031555;28;20132;-76
2024/01/02 05:08:42;;;;;;;0.40;0.08;;;7.20;99.90;;;;;;5029300;28;20493;-75
2024/01/02 05:11:08;;;;;;;1.35;0.20;;;7.20;99.90;;;;;;5013849;28;20038;-76
2024/01/02 05:13:33;;;;;;;0.00;0.00;;;7.20;99.90;;;;;;5031820;28;20041;-76
2024/01/02 05:15:59;;;;;;;0.10;0.10;;;7.20;99.90;;;;;;5031310;28;20049;-76
2024/01/02 05:18:25;;;;;;;0.00;0.00;;;7.20;99.90;;;;;;5027603;28;20581;-76
2024/01/02 05:20:50;;;;;;;0.10;0.10;;;7.20;99.90;;;;;;5017849;28;20045;-76
2024/01/02 05:23:16;;;;;;;0.22;0.10;;;7.20;99.90;;;;;;5028960;28;20057;-75
2024/01/02 05:25:42;;;;;;;0.20;0.13;;;7.20;99.90;;;;;;5033567;28;20038;-76
2024/01/02 05:28:08;;;;;;;0.13;0.10;;;7.30;99.90;;;;;;5025987;28;20375;-76
2024/01/02 05:30:33;;;;;;;0.00;0.00;;;7.20;99.90;;;;;;5030266;28;20037;-76
2024/01/02 05:32:59;;;;;;;0.40;0.03;;;7.20;99.90;;;;;;5018731;28;20042;-76
2024/01/02 05:35:25;;;;;;;0.17;0.10;;;7.20;99.90;;;;;;5017493;28;20048;-76
2024/01/02 05:37:50;;;;;;;0.10;0.00;;;7.20;99.90;;;;;;5032812;28;20077;-76
2024/01/02 05:40:16;;;;;;;0.00;0.00;;;7.20;99.90;;;;;;5019199;28;20074;-76
2024/01/02 05:42:42;;;;;;;0.00;0.00;;;7.20;99.90;;;;;;5036053;28;20045;-76
2024/01/02 05:45:08;;;;;;;0.00;0.00;;;7.20;99.90;;;;;;5034705;28;20490;-76
2024/01/02 05:47:34;;;;;;;0.00;0.00;;;7.20;99.90;;;;;;5028190;28;20076;-76
2024/01/02 05:50:00;;;;;;;0.17;0.08;;;7.20;99.90;;;;;;5012512;28;20091;-76
2024/01/02 05:52:26;;;;;;;0.00;0.00;;;7.20;99.90;;;;;;5030709;28;20113;-76
2024/01/02 05:54:51;;;;;;;0.25;0.10;;;7.30;99.90;;;;;;5011723;28;20030;-76
2024/01/02 05:57:17;;;;;;;2.83;0.10;;;7.30;99.90;;;;;;5016219;28;20049;-76
2024/01/02 05:59:43;;;;;;;0.20;0.10;;;7.30;99.90;;;;;;5025312;28;20121;-77
2024/01/02 06:02:08;;;;;;;0.00;0.00;;;7.30;99.90;;;;;;5017749;28;20041;-77
2024/01/02 06:04:34;;;;;;;0.00;0.00;;;7.30;99.90;;;;;;5007513;28;20083;-77
2024/01/02 06:07:00;;;;;;;0.20;0.03;;;7.30;99.90;;;;;;5024133;28;20072;-76
2024/01/02 06:09:25;;;;;;;0.10;0.00;;;7.30;99.90;;;;;;5027394;28;20064;-76
2024/01/02 06:11:51;;;;;;;0.35;0.10;;;7.40;99.90;;;;;;5012062;28;20045;-77
2024/01/02 06:14:18;;;;;;;0.00;0.00;;;7.30;99.90;;;;;;5006818;28;20034;-77
2024/01/02 06:16:43;;;;;;;0.10;0.10;;;7.40;99.90;;;;;;5028205;28;20065;-77
2024/01/02 06:19:09;;;;;;;0.10;0.10;;;7.40;99.90;;;;;;5005006;28;20037;-77
2024/01/02 06:21:35;;;;;;;0.00;0.00;;;7.40;99.90;;;;;;5028482;28;20559;-77
2024/01/02 06:24:00;;;;;;;0.10;0.00;;;7.40;99.90;;;;;;5023705;28;20057;-77
2024/01/02 06:26:26;;;;;;;0.00;0.00;;;7.50;99.90;;;;;;5050024;28;20041;-77
2024/01/02 06:28:52;;;;;;;0.15;0.00;;;7.50;99.90;;;;;;5014073;28;20129;-77
2024/01/02 06:31:21;;;;;;;0.00;0.00;;;7.60;99.90;;;;;;5028061;28;20044;-77
2024/01/02 06:33:48;;;;;;;0.10;0.10;;;7.60;99.90;;;;;;5030063;28;20422;-77
2024/01/02 06:36:14;;;;;;;0.00;0.00;;;7.70;99.90;;;;;;5037417;28;20041;-77
2024/01/02 06:38:40;;;;;;;0.22;0.13;;;7.70;99.90;;;;;;5036248;28;20048;-77
2024/01/02 06:41:06;;;;;;;0.10;0.10;;;7.70;99.90;;;;;;5034090;28;20042;-78
2024/01/02 06:43:32;;;;;;;0.00;0.00;;;7.70;99.90;;;;;;5037585;28;20036;-78
2024/01/02 06:45:57;;;;;;;0.00;0.00;;;7.80;99.90;;;;;;5030616;28;20109;-78
2024/01/02 06:48:23;;;;;;;0.00;0.00;;;7.70;99.90;;;;;;5019212;28;20042;-78
2024/01/02 06:50:49;;;;;;;0.03;0.03;;;7.80;99.90;;;;;;5024112;28;20537;-78
2024/01/02 06:53:15;;;;;;;0.00;0.00;;;7.80;99.90;;;;;;5022019;28;20037;-78
2024/01/02 06:55:40;;;;;;;0.00;0.00;;;7.80;99.90;;;;;;5020200;28;20034;-78
2024/01/02 06:58:06;;;;;;;0.00;0.00;;;7.90;99.90;;;;;;5012594;28;20552;-78
2024/01/02 07:00:34;;;;;;;0.52;0.17;;;7.90;99.90;;;;;;5028092;28;20032;-78
2024/01/02 07:03:00;;;;;;;0.00;0.00;;;7.90;99.90;;;;;;5017177;28;20042;-78
2024/01/02 07:05:27;;;;;;;0.00;0.00;;;8.00;99.90;;;;;;5033939;28;20051;-78
2024/01/02 07:07:52;;;;;;;0.10;0.10;;;8.00;99.90;;;;;;5033618;28;20051;-78
2024/01/02 07:10:18;;;;;;;0.35;0.17;;;8.10;99.90;;;;;;5033601;28;20062;-78
2024/01/02 07:12:44;;;;;;;0.17;0.00;;;8.10;99.90;;;;;;5033512;28;20041;-77
2024/01/02 07:15:10;;;;;;;0.10;0.10;;;8.20;99.90;;;;;;5030542;28;20096;-77
2024/01/02 07:17:36;;;;;;;0.00;0.00;;;8.20;99.90;;;;;;5031598;28;20076;-77
2024/01/02 07:20:02;;;;;;;0.25;0.10;;;8.20;99.90;;;;;;5028648;28;20338;-77
2024/01/02 07:22:28;;;;;;;0.45;0.20;;;8.20;99.90;;;;;;5026319;28;20427;-77
2024/01/02 07:24:54;;;;;;;0.60;0.10;;;8.30;99.90;;;;;;5018380;28;20060;-77
2024/01/02 07:27:20;;;;;;;0.05;0.03;;;8.30;99.90;;;;;;5026487;28;20037;-77
2024/01/02 07:29:46;;;;;;;0.10;0.10;;;8.40;99.90;;;;;;5032957;28;20040;-77
2024/01/02 07:32:12;;;;;;;0.70;0.20;;;8.30;99.90;;;;;;5028468;28;20072;-77
2024/01/02 07:34:38;;;;;;;0.00;0.00;;;8.40;99.90;;;;;;5027425;28;20045;-77
2024/01/02 07:37:04;;;;;;;0.00;0.00;;;8.50;99.90;;;;;;5016879;28;20037;-77
2024/01/02 07:39:29;;;;;;;0.05;0.00;;;8.50;99.90;;;;;;5015573;28;20042;-77
2024/01/02 07:41:55;;;;;;;0.05;0.00;;;8.50;99.90;;;;;;5029459;28;20332;-77
2024/01/02 07:44:22;;;;;;;0.35;0.20;;;8.50;99.90;;;;;;5014443;28;20049;-77
2024/01/02 07:46:47;;;;;;;0.08;0.08;;;8.60;99.90;;;;;;5013980;28;20157;-78
2024/01/02 07:49:13;;;;;;;0.43;0.20;;;8.60;99.90;;;;;;5016339;28;21249;-78
2024/01/02 07:51:39;;;;;;;0.30;0.03;;;8.70;99.90;;;;;;5029587;28;20057;-78
2024/01/02 07:54:04;;;;;;;0.40;0.10;;;8.80;99.90;;;;;;5033255;28;20044;-78
2024/01/02 07:56:32;;;;;;;0.47;0.17;;;8.80;99.90;;;;;;5031849;28;20050;-78
2024/01/02 07:58:57;;;;;;;0.80;0.10;;;8.90;99.90;;;;;;5017989;28;20057;-78
2024/01/02 08:01:23;;;;;;;0.30;0.20;;;9.00;99.90;;;;;;5013359;28;20076;-78
2024/01/02 08:03:49;;;;;;;0.63;0.20;;;9.10;99.90;;;;;;5019986;28;20076;-78
2024/01/02 08:06:14;;;;;;;0.10;0.10;;;9.30;99.90;;;;;;5031745;28;20386;-78
2024/01/02 08:08:40;;;;;;;0.50;0.28;;;9.40;99.90;;;;;;5014724;28;20044;-78
2024/01/02 08:11:08;;;;;;;2.95;0.65;;;9.40;99.90;;;;;;5026197;28;20122;-78
2024/01/02 08:13:34;;;;;;;0.60;0.47;;;9.50;99.90;;;;;;5034248;28;20060;-78
2024/01/02 08:16:03;;;;;;;0.77;0.40;;;9.60;99.90;;;;;;5034390;28;20041;-79
2024/01/02 08:18:30;;;;;;;4.57;0.55;;;9.60;99.90;;;;;;5028211;28;20104;-79
2024/01/02 08:20:56;;;;;;;0.45;0.32;;;9.70;99.90;;;;;;5015670;28;20041;-79
2024/01/02 08:23:22;;;;;;;0.13;0.10;;;9.70;99.90;;;;;;5030612;28;20065;-79
2024/01/02 08:25:49;;;;;;;0.52;0.22;;;9.80;99.90;;;;;;5034955;28;20065;-79
2024/01/02 08:28:15;;;;;;;0.70;0.30;;;9.80;99.90;;;;;;5027398;28;20073;-79
2024/01/02 08:30:40;;;;;;;0.25;0.08;;;9.90;99.90;;;;;;5030020;28;20037;-79
2024/01/02 08:33:06;;;;;;;4.88;0.40;;;9.90;99.90;;;;;;5033106;28;20152;-79
2024/01/02 08:35:33;;;;;;;0.63;0.32;;;10.00;99.90;;;;;;5016283;28;20042;-79
2024/01/02 08:37:59;;;;;;;0.30;0.10;;;10.00;99.90;;;;;;5023692;28;20055;-79
2024/01/02 08:40:25;;;;;;;0.90;0.10;;;10.10;99.90;;;;;;5032930;28;20037;-78
2024/01/02 08:43:13;;;;;;;0.32;0.30;;;10.10;99.90;;;;;;5019725;28;20097;-78
2024/01/02 08:45:43;;;;;;;0.10;0.08;;;10.20;99.90;;;;;;5035555;28;20034;-78
2024/01/02 08:48:11;;;;;;;9.40;0.40;;;10.20;99.90;;;;;;5035985;28;20036;-79
2024/01/02 08:50:41;;;;;;;0.20;0.13;;;10.30;99.90;;;;;;5028188;28;20048;-79
2024/01/02 08:53:07;;;;;;;1.55;0.30;;;10.30;99.90;;;;;;5029800;28;20060;-79
2024/01/02 08:55:33;;;;;;;3.45;0.40;;;10.30;99.90;;;;;;5026508;28;20044;-79
2024/01/02 08:57:59;;;;;;;0.15;0.10;;;10.40;99.90;;;;;;5034413;28;20504;-79
2024/01/02 09:00:25;;;;;;;0.20;0.13;;;10.40;99.90;;;;;;5011079;28;20042;-79
2024/01/02 09:02:51;;;;;;;0.85;0.35;;;10.50;99.90;;;;;;5033196;28;20069;-79
2024/01/02 09:05:16;;;;;;;0.10;0.00;;;10.50;99.90;;;;;;5036470;28;20395;-79
2024/01/02 09:07:42;;;;;;;1.98;0.45;;;10.60;99.90;;;;;;5023107;28;20121;-79
2024/01/02 09:10:08;;;;;;;1.52;0.38;;;10.60;99.90;;;;;;5024643;28;20053;-79
2024/01/02 09:12:34;;;;;;;4.18;0.20;;;10.70;99.90;;;;;;5040010;28;21169;-79
2024/01/02 09:15:00;;;;;;;0.38;0.22;;;10.70;99.90;;;;;;5041004;28;20029;-79
2024/01/02 09:17:26;;;;;;;0.17;0.03;;;10.70;99.90;;;;;;5040666;28;20149;-79
2024/01/02 09:19:52;;;;;;;1.90;0.68;;;10.70;99.90;;;;;;5017238;28;20062;-79
2024/01/02 09:22:17;;;;;;;3.72;0.47;;;10.80;99.90;;;;;;5037138;28;20037;-79
2024/01/02 09:24:44;;;;;;;1.45;0.10;;;10.80;99.90;;;;;;5040418;28;20048;-79
2024/01/02 09:27:14;;;;;;;2.92;0.28;;;10.80;99.90;;;;;;5021358;28;20085;-79
2024/01/02 09:29:39;;;;;;;5.95;0.47;;;10.90;99.90;;;;;;5036038;28;20065;-79
2024/01/02 09:32:06;;;;;;;2.15;0.43;;;10.90;99.90;;;;;;5022521;28;20079;-79
2024/01/02 09:34:32;;;;;;;2.38;0.63;;;10.90;99.90;;;;;;5020838;28;20660;-79
2024/01/02 09:36:58;;;;;;;4.40;0.32;;;10.90;99.90;;;;;;5040244;28;20049;-79
2024/01/02 09:39:23;;;;;;;6.55;0.38;;;10.90;99.90;;;;;;5038440;28;20049;-79
2024/01/02 09:42:13;;;;;;;1.98;0.17;;;10.90;99.90;;;;;;5035106;28;20037;-79
2024/01/02 09:45:16;;;;;;;2.95;0.25;;;11.00;99.90;;;;;;5042946;28;20041;-79
2024/01/02 09:48:00;;;;;;;0.95;0.17;;;11.00;99.90;;;;;;5037101;28;20041;-79
2024/01/02 09:50:34;;;;;;;0.32;0.32;;;11.00;99.90;;;;;;5019008;28;20046;-79
2024/01/02 09:53:03;;;;;;;0.63;0.43;;;11.10;99.90;;;;;;5025820;28;20096;-79
2024/01/02 09:55:37;;;;;;;0.15;0.08;;;11.10;99.90;;;;;;5036317;28;20072;-79
2024/01/02 09:58:06;;;;;;;5.43;0.40;;;11.10;99.90;;;;;;5026620;28;20045;-79
2024/01/02 10:00:45;;;;;;;0.20;0.10;;;11.10;99.90;;;;;;5038898;28;20045;-79
2024/01/02 10:03:20;;;;;;;0.20;0.10;;;11.10;99.90;;;;;;5027158;28;20045;-79
2024/01/02 10:06:12;;;;;;;1.77;0.22;;;11.10;99.90;;;;;;5017876;28;20025;-79
2024/01/02 10:09:02;;;;;;;2.35;0.55;;;11.10;99.90;;;;;;5021220;28;20128;-79
2024/01/02 10:11:53;;;;;;;4.03;0.20;;;11.10;99.90;;;;;;5017517;28;20034;-79
2024/01/02 10:14:38;;;;;;;4.68;0.20;;;11.10;99.90;;;;;;5024947;28;20630;-79
2024/01/02 10:17:28;;;;;;;0.17;0.03;;;11.10;99.90;;;;;;5019853;28;20156;-79
2024/01/02 10:20:15;;;;;;;2.40;0.20;;;11.10;99.90;;;;;;5037149;28;20064;-79
2024/01/02 10:23:04;;;;;;;2.00;0.28;;;11.10;99.90;;;;;;5009971;28;20045;-79
2024/01/02 10:25:31;;;;;;;3.83;0.20;;;11.20;99.90;;;;;;5027599;28;20045;-79
2024/01/02 10:28:07;;;;;;;0.88;0.10;;;11.20;99.90;;;;;;5023155;28;20490;-79
2024/01/02 10:30:53;;;;;;;0.63;0.13;;;11.30;99.90;;;;;;5035833;28;20034;-79
2024/01/02 10:33:39;;;;;;;2.20;0.22;;;11.30;99.90;;;;;;5027678;28;20038;-79
2024/01/02 10:36:10;;;;;;;4.28;0.35;;;11.30;99.90;;;;;;5035241;28;20034;-79
2024/01/02 10:38:44;;;;;;;1.48;0.10;;;11.30;99.90;;;;;;5012846;28;20039;-79
2024/01/02 10:41:40;;;;;;;1.13;0.10;;;11.30;99.90;;;;;;5012749;28;20119;-79
2024/01/02 10:44:27;;;;;;;0.98;0.08;;;11.30;99.90;;;;;;5024425;28;20280;-79
2024/01/02 10:47:02;;;;;;;1.67;0.30;;;11.30;99.90;;;;;;5030469;28;20048;-79
2024/01/02 10:49:42;;;;;;;2.78;0.30;;;11.30;99.90;;;;;;5016016;28;20213;-79
2024/01/02 10:52:25;;;;;;;0.65;0.40;;;11.30;99.90;;;;;;5020844;28;20042;-79
2024/01/02 10:55:23;;;;;;;5.63;0.38;;;11.30;99.90;;;;;;5027348;28;20452;-79
2024/01/02 10:58:01;;;;;;;4.68;0.40;;;11.40;99.90;;;;;;5011316;28;20045;-79
2024/01/02 11:00:31;;;;;;;3.97;0.30;;;11.40;99.90;;;;;;5034125;28;20584;-79
2024/01/02 11:03:04;;;;;;;1.05;0.45;;;11.30;99.90;;;;;;5016833;28;20041;-79
2024/01/02 11:05:33;;;;;;;0.75;0.10;;;11.40;99.90;;;;;;5029371;28;20038;-79
2024/01/02 11:08:18;;;;;;;0.52;0.40;;;11.40;99.90;;;;;;5031179;28;20045;-79
2024/01/02 11:10:57;;;;;;;1.27;0.28;;;11.50;99.90;;;;;;5028855;28;20100;-79
2024/01/02 11:13:26;;;;;;;7.22;0.20;;;11.50;99.90;;;;;;5027790;28;20128;-79
2024/01/02 11:16:17;;;;;;;1.10;0.10;;;11.40;99.90;;;;;;5027510;28;20033;-79
2024/01/02 11:18:46;;;;;;;0.25;0.17;;;11.40;99.90;;;;;;5029659;28;20034;-79
2024/01/02 11:21:28;;;;;;;1.55;0.80;;;11.50;99.90;;;;;;5009727;28;20059;-79
2024/01/02 11:23:59;;;;;;;3.92;0.52;;;11.50;99.90;;;;;;5027255;28;20041;-78
2024/01/02 11:26:30;;;;;;;2.63;0.20;;;11.50;99.90;;;;;;5030273;28;20037;-79
2024/01/02 11:29:01;;;;;;;4.75;0.15;;;11.50;99.90;;;;;;5047064;28;20045;-79
2024/01/02 11:31:31;;;;;;;1.23;0.40;;;11.50;99.90;;;;;;5036308;28;20461;-79
2024/01/02 11:34:08;;;;;;;1.55;0.43;;;11.50;99.90;;;;;;5012827;28;20397;-79
2024/01/02 11:36:39;;;;;;;2.75;0.43;;;11.50;99.90;;;;;;5045985;28;20076;-79
2024/01/02 11:39:11;;;;;;;0.15;0.00;;;11.50;99.90;;;;;;5009391;28;20466;-79
2024/01/02 11:41:58;;;;;;;1.67;0.60;;;11.40;99.90;;;;;;5030703;28;20037;-79
2024/01/02 11:45:01;;;;;;;0.55;0.38;;;11.50;99.90;;;;;;5029581;28;20053;-79
2024/01/02 11:47:45;;;;;;;3.10;0.52;;;11.50;99.90;;;;;;5028497;28;20046;-79
2024/01/02 11:50:13;;;;;;;2.57;0.47;;;11.50;99.90;;;;;;5025886;28;20056;-79
2024/01/02 11:52:42;;;;;;;9.02;1.08;;;11.50;99.90;;;;;;5028767;28;20098;-79
2024/01/02 11:55:31;;;;;;;2.40;0.57;;;11.50;99.90;;;;;;5031696;28;20492;-79
2024/01/02 11:58:05;;;;;;;1.80;0.45;;;11.50;99.90;;;;;;5027698;28;20068;-79
2024/01/02 12:00:41;;;;;;;6.93;1.27;;;11.60;99.90;;;;;;5028152;28;20071;-78
2024/01/02 12:03:57;;;;;;;7.45;0.73;;;11.60;99.90;;;;;;5032606;28;20073;-77
2024/01/02 12:06:47;;;;;;;1.75;0.50;;;11.60;99.90;;;;;;4999082;28;20509;-78
2024/01/02 12:09:17;;;;;;;0.93;0.57;;;11.60;99.90;;;;;;5008493;28;20137;-78
2024/01/02 12:12:24;;;;;;;4.60;0.77;;;11.60;99.90;;;;;;5015192;28;20470;-78
2024/01/02 12:15:08;;;;;;;6.20;0.70;;;11.50;99.90;;;;;;5020893;28;20038;-78
2024/01/02 12:17:39;;;;;;;2.72;0.50;;;11.60;99.90;;;;;;5004962;28;20033;-78
2024/01/02 12:20:09;;;;;;;4.47;0.47;;;11.60;99.90;;;;;;5016507;28;20045;-79
2024/01/02 12:22:36;;;;;;;10.60;0.73;;;11.60;99.90;;;;;;5007636;28;20041;-79
2024/01/02 12:25:05;;;;;;;2.60;0.30;;;11.50;99.90;;;;;;5022394;28;20135;-79
2024/01/02 12:27:36;;;;;;;2.95;0.80;;;11.50;99.90;;;;;;5019355;28;20037;-79
2024/01/02 12:30:08;;;;;;;2.38;1.10;;;11.50;99.90;;;;;;5019689;28;20081;-78
2024/01/02 12:33:06;;;;;;;5.95;1.15;;;11.50;99.90;;;;;;5000684;28;20069;-78
2024/01/02 12:36:00;;;;;;;3.20;0.85;;;11.50;99.90;;;;;;5022904;28;20049;-78
2024/01/02 12:38:37;;;;;;;4.13;0.73;;;11.50;99.90;;;;;;5009622;28;20048;-78
2024/01/02 12:41:08;;;;;;;7.38;1.08;;;11.50;99.90;;;;;;5023975;28;20229;-78
2024/01/02 12:43:36;;;;;;;4.63;0.52;;;11.50;99.90;;;;;;5023081;28;20040;-78
2024/01/02 12:46:06;;;;;;;1.65;0.47;;;11.50;99.90;;;;;;5035601;28;20061;-77
2024/01/02 12:48:41;;;;;;;4.07;0.68;;;11.50;99.90;;;;;;5035196;28;20098;-77
2024/01/02 12:51:08;;;;;;;3.20;0.45;;;11.50;99.90;;;;;;5033511;28;20037;-78
2024/01/02 12:53:38;;;;;;;4.57;1.08;;;11.50;99.90;;;;;;5043123;28;20097;-77
2024/01/02 12:56:08;;;;;;;11.25;0.93;;;11.50;99.90;;;;;;5029435;28;20045;-78
2024/01/02 12:58:34;;;;;;;1.92;0.47;;;11.50;99.90;;;;;;5025014;28;20037;-77
2024/01/02 13:01:01;;;;;;;2.47;0.75;;;11.50;99.90;;;;;;5048585;28;20084;-77
2024/01/02 13:03:30;;;;;;;8.50;1.13;;;11.50;99.90;;;;;;5040391;28;20045;-78